Time;durP1;ratioP1;P1;durP2;ratioP2;P2;SDS_P1;SDS_P2;PMS_P1;PMS_P2;Temp;Humidity;BMP_temperature;BMP_pressure;BME280_temperature;BME280_humidity;BME280_pressure;Samples;Min_cycle;Max_cycle;Signal;HPM_P1;HPM_P2
2023/04/10 00:00:23;;;;;;;;;;;12.70;52.20;;;12.90;38.33;99289.72;5028448;28;125069;-72
2023/04/10 00:02:49;;;;;;;;;;;12.70;52.30;;;12.91;38.55;99298.84;5027358;28;123783;-73
2023/04/10 00:05:15;;;;;;;;;;;12.60;52.40;;;12.90;38.58;99291.69;5028899;28;115445;-73
2023/04/10 00:07:41;;;;;;;;;;;12.60;52.40;;;12.87;38.66;99292.28;5062146;27;116991;-73
2023/04/10 00:10:10;;;;;;;;;;;12.60;52.60;;;12.83;38.79;99287.38;5034976;27;124208;-74
2023/04/10 00:12:37;;;;;;;;;;;12.60;52.70;;;12.79;38.93;99289.16;5033094;27;124291;-73
2023/04/10 00:15:03;;;;;;;;;;;12.60;52.90;;;12.73;38.99;99292.34;5028968;28;114182;-73
2023/04/10 00:17:29;;;;;;;;;;;12.50;53.00;;;12.66;39.17;99287.25;5032763;27;113816;-73
2023/04/10 00:19:59;;;;;;;;;;;12.40;53.10;;;12.63;39.38;99293.44;5030146;28;125005;-73
2023/04/10 00:22:25;;;;;;;;;;;12.40;53.30;;;12.59;39.18;99284.91;5028607;28;124501;-72
2023/04/10 00:24:52;;;;;;;;;;;12.40;53.40;;;12.57;39.48;99291.91;5023309;28;114350;-73
2023/04/10 00:27:18;;;;;;;;;;;12.30;53.40;;;12.51;39.55;99282.06;5028882;27;113948;-72
2023/04/10 00:29:47;;;;;;;;;;;12.30;53.50;;;12.46;39.66;99276.66;5029675;27;124656;-73
2023/04/10 00:32:13;;;;;;;;;;;12.30;53.70;;;12.43;39.45;99288.38;5030635;28;122923;-72
2023/04/10 00:34:39;;;;;;;;;;;12.30;53.80;;;12.38;39.83;99287.38;5029166;28;114429;-72
2023/04/10 00:37:06;;;;;;;;;;;12.20;53.80;;;12.34;39.58;99289.09;5029911;28;113068;-72
2023/04/10 00:39:35;;;;;;;;;;;12.20;54.00;;;12.32;39.85;99288.59;5032161;28;124514;-73
2023/04/10 00:42:02;;;;;;;;;;;12.10;54.00;;;12.28;40.17;99279.28;5031837;27;123874;-72
2023/04/10 00:44:28;;;;;;;;;;;12.10;54.10;;;12.23;39.90;99276.63;5029522;28;114335;-73
2023/04/10 00:46:54;;;;;;;;;;;12.00;54.20;;;12.21;40.03;99287.19;5047716;27;112840;-73
2023/04/10 00:49:27;;;;;;;;;;;12.00;54.40;;;12.20;40.02;99281.94;5028877;28;124287;-72
2023/04/10 00:51:53;;;;;;;;;;;12.00;54.60;;;12.14;40.25;99275.69;5028941;28;123708;-72
2023/04/10 00:54:22;;;;;;;;;;;11.90;54.60;;;12.14;40.74;99275.69;5028525;28;115513;-73
2023/04/10 00:56:51;;;;;;;;;;;11.90;54.80;;;12.10;40.66;99264.44;5032367;27;114732;-74
2023/04/10 00:59:17;;;;;;;;;;;11.90;54.90;;;12.04;40.91;99268.47;5027132;28;124307;-73
2023/04/10 01:01:47;;;;;;;;;;;11.80;55.00;;;12.01;40.57;99271.84;5026831;27;123599;-72
2023/04/10 01:04:15;;;;;;;;;;;11.80;55.10;;;11.98;40.95;99271.63;5027787;28;114906;-73
2023/04/10 01:06:53;;;;;;;;;;;11.80;55.20;;;11.93;40.86;99270.63;5047373;27;113391;-72
2023/04/10 01:09:38;;;;;;;;;;;11.70;55.20;;;11.90;40.89;99273.19;5030873;27;124752;-73
2023/04/10 01:12:42;;;;;;;;;;;11.70;55.40;;;11.83;41.19;99270.81;5063821;27;123511;-72
2023/04/10 01:15:19;;;;;;;;;;;11.70;55.50;;;11.79;41.18;99272.53;5030765;28;113401;-72
2023/04/10 01:18:10;;;;;;;;;;;11.60;55.60;;;11.77;41.34;99277.59;5060894;27;113397;-73
2023/04/10 01:20:42;;;;;;;;;;;11.60;55.80;;;11.72;41.56;99277.69;5035246;27;124813;-73
2023/04/10 01:23:41;;;;;;;;;;;11.50;55.90;;;11.68;41.43;99279.44;5025615;28;123968;-73
2023/04/10 01:26:16;;;;;;;;;;;11.50;56.00;;;11.66;41.77;99276.13;5036799;27;114554;-72
2023/04/10 01:29:07;;;;;;;;;;;11.50;56.10;;;11.62;41.67;99278.72;5029485;27;113806;-72
2023/04/10 01:31:41;;;;;;;;;;;11.40;56.20;;;11.60;41.97;99275.41;5023288;28;124192;-74
2023/04/10 01:34:16;;;;;;;;;;;11.40;56.30;;;11.58;41.69;99282.38;5011625;28;123014;-72
2023/04/10 01:36:56;;;;;;;;;;;11.40;56.40;;;11.56;41.99;99284.66;5026619;28;114531;-72
2023/04/10 01:39:29;;;;;;;;;;;11.40;56.50;;;11.53;42.04;99282.53;5013585;28;112649;-73
2023/04/10 01:41:58;;;;;;;;;;;11.30;56.50;;;11.50;42.03;99278.41;5026057;28;124282;-73
2023/04/10 01:44:28;;;;;;;;;;;11.30;56.70;;;11.47;42.08;99279.84;5031490;27;123685;-72
2023/04/10 01:46:55;;;;;;;;;;;11.30;56.80;;;11.44;42.11;99274.09;5016333;28;114488;-73
2023/04/10 01:49:28;;;;;;;;;;;11.20;56.80;;;11.41;42.15;99275.53;5027906;28;115095;-73
2023/04/10 01:51:58;;;;;;;;;;;11.20;57.00;;;11.37;42.07;99271.75;5026738;28;124894;-73
2023/04/10 01:54:30;;;;;;;;;;;11.20;57.10;;;11.36;42.40;99266.50;5026112;28;124402;-73
2023/04/10 01:57:05;;;;;;;;;;;11.10;57.20;;;11.32;42.38;99271.03;5012998;28;113942;-72
2023/04/10 01:59:31;;;;;;;;;;;11.10;57.90;;;11.26;42.32;99273.06;5029626;27;114261;-74
2023/04/10 02:01:59;;;;;;;;;;;11.10;57.40;;;11.23;42.88;99271.72;5003062;28;123329;-71
2023/04/10 02:04:27;;;;;;;;;;;11.00;57.40;;;11.21;42.90;99270.41;5047192;27;124113;-74
2023/04/10 02:07:03;;;;;;;;;;;11.00;57.60;;;11.18;43.08;99271.00;5029139;28;114512;-72
2023/04/10 02:09:38;;;;;;;;;;;11.00;57.80;;;11.15;43.00;99274.34;5035156;27;113836;-71
2023/04/10 02:12:05;;;;;;;;;;;10.90;57.80;;;11.11;42.77;99262.28;5059381;27;123895;-71
2023/04/10 02:14:40;;;;;;;;;;;10.90;57.90;;;11.08;43.22;99260.13;5035858;27;123959;-72
2023/04/10 02:17:08;;;;;;;;;;;10.90;58.00;;;11.05;42.77;99261.56;5030947;27;114511;-72
2023/04/10 02:19:38;;;;;;;;;;;10.80;58.10;;;11.01;43.08;99261.31;5027762;28;114211;-71
2023/04/10 02:22:05;;;;;;;;;;;10.80;58.20;;;11.00;42.97;99268.00;5026971;28;124707;-71
2023/04/10 02:24:32;;;;;;;;;;;10.80;58.30;;;10.97;43.36;99271.38;5026142;28;123976;-71
2023/04/10 02:27:02;;;;;;;;;;;10.80;58.50;;;10.92;43.46;99271.44;5012222;28;115287;-71
2023/04/10 02:29:28;;;;;;;;;;;10.70;58.50;;;10.89;43.36;99265.72;5047404;27;111865;-71
2023/04/10 02:31:55;;;;;;;;;;;10.70;59.30;;;10.85;43.40;99271.00;5027231;28;124302;-71
2023/04/10 02:34:21;;;;;;;;;;;10.70;58.80;;;10.82;43.77;99266.09;5059789;27;124496;-71
2023/04/10 02:36:51;;;;;;;;;;;10.60;58.90;;;10.81;44.01;99270.00;5028097;28;114327;-71
2023/04/10 02:39:17;;;;;;;;;;;10.60;59.00;;;10.77;44.12;99269.78;5027464;28;114778;-71
2023/04/10 02:41:43;;;;;;;;;;;10.60;59.20;;;10.76;43.95;99270.06;5027536;28;124274;-70
2023/04/10 02:44:09;;;;;;;;;;;10.60;59.30;;;10.75;43.77;99273.97;5031838;27;123802;-71
2023/04/10 02:46:38;;;;;;;;;;;10.60;59.50;;;10.73;44.02;99265.16;5026225;28;114600;-71
2023/04/10 02:49:05;;;;;;;;;;;10.50;59.50;;;10.73;43.78;99276.22;5027549;28;113691;-71
2023/04/10 02:51:38;;;;;;;;;;;10.50;59.60;;;10.72;44.29;99280.06;5027468;28;124375;-71
2023/04/10 02:54:04;;;;;;;;;;;10.50;59.70;;;10.69;44.00;99275.97;5029402;27;123915;-71
2023/04/10 02:56:38;;;;;;;;;;;10.50;59.70;;;10.68;44.29;99279.06;5030995;28;114300;-71
2023/04/10 02:59:04;;;;;;;;;;;10.50;59.80;;;10.65;44.46;99276.91;5029994;27;113796;-71
2023/04/10 03:01:33;;;;;;;;;;;10.40;59.90;;;10.60;44.41;99280.56;5032876;27;124459;-71
2023/04/10 03:04:08;;;;;;;;;;;10.40;60.00;;;10.58;44.51;99285.56;5033661;28;123469;-71
2023/04/10 03:06:38;;;;;;;;;;;10.40;60.20;;;10.53;44.49;99280.94;5029856;28;114602;-72
2023/04/10 03:09:04;;;;;;;;;;;10.30;60.20;;;10.50;44.75;99286.22;5031362;28;113989;-71
2023/04/10 03:11:33;;;;;;;;;;;10.30;60.30;;;10.47;44.53;99284.06;5022478;27;124301;-71
2023/04/10 03:14:05;;;;;;;;;;;10.30;60.50;;;10.46;44.83;99277.75;5030784;27;123713;-71
2023/04/10 03:16:31;;;;;;;;;;;10.20;60.50;;;10.44;44.40;99279.16;5029341;27;114076;-71
2023/04/10 03:18:58;;;;;;;;;;;10.20;60.60;;;10.44;44.90;99273.63;5030509;28;114545;-71
2023/04/10 03:21:27;;;;;;;;;;;10.20;60.80;;;10.41;45.03;99269.53;5062809;27;124495;-71
2023/04/10 03:23:53;;;;;;;;;;;10.20;60.90;;;10.37;45.05;99268.50;5028882;28;124068;-71
2023/04/10 03:26:20;;;;;;;;;;;10.10;60.80;;;10.34;44.74;99258.88;5029689;28;115426;-71
2023/04/10 03:28:50;;;;;;;;;;;10.10;60.90;;;10.33;45.07;99257.22;5028728;28;115275;-71
2023/04/10 03:31:19;;;;;;;;;;;10.10;61.70;;;10.32;44.79;99263.06;5026707;27;124136;-71
2023/04/10 03:33:45;;;;;;;;;;;10.10;61.10;;;10.29;45.00;99255.34;5031266;27;123271;-71
2023/04/10 03:36:14;;;;;;;;;;;10.10;61.10;;;10.26;45.44;99261.44;5030485;28;114350;-71
2023/04/10 03:38:41;;;;;;;;;;;10.00;61.10;;;10.23;44.91;99251.81;5032926;28;113910;-72
2023/04/10 03:41:07;;;;;;;;;;;10.00;61.20;;;10.20;45.36;99251.59;5014824;28;123205;-72
2023/04/10 03:43:34;;;;;;;;;;;10.00;61.30;;;10.17;45.29;99248.28;5030462;28;124324;-71
2023/04/10 03:46:02;;;;;;;;;;;9.90;62.30;;;10.16;45.43;99243.09;5030578;28;114594;-71
2023/04/10 03:48:29;;;;;;;;;;;9.90;62.50;;;10.15;45.37;99249.72;5037275;27;112774;-71
2023/04/10 03:50:58;;;;;;;;;;;9.90;62.60;;;10.15;45.38;99241.44;5029324;28;124223;-71
2023/04/10 03:53:34;;;;;;;;;;;9.90;62.80;;;10.15;45.25;99241.44;5030418;28;124010;-71
2023/04/10 03:56:03;;;;;;;;;;;9.90;62.90;;;10.14;45.51;99248.09;5015038;28;113778;-71
2023/04/10 03:58:29;;;;;;;;;;;9.90;63.00;;;10.13;45.70;99247.28;5032400;28;112958;-71
2023/04/10 04:00:56;;;;;;;;;;;9.90;63.10;;;10.12;45.58;99248.38;5027368;27;124176;-71
2023/04/10 04:03:22;;;;;;;;;;;9.90;63.20;;;10.12;45.42;99244.78;5014766;27;124005;-71
2023/04/10 04:05:54;;;;;;;;;;;9.90;63.20;;;10.11;45.47;99243.16;5027283;28;114532;-71
2023/04/10 04:08:20;;;;;;;;;;;9.80;63.10;;;10.08;45.75;99238.25;5024327;28;113525;-71
2023/04/10 04:10:46;;;;;;;;;;;9.80;63.20;;;10.04;45.80;99237.19;5028747;28;124146;-71
2023/04/10 04:13:17;;;;;;;;;;;9.80;63.20;;;10.02;45.65;99237.50;5029698;28;124172;-71
2023/04/10 04:15:43;;;;;;;;;;;9.80;63.30;;;9.99;45.41;99240.81;5019981;28;115362;-71
2023/04/10 04:18:10;;;;;;;;;;;9.80;63.30;;;9.96;45.74;99233.97;5062448;27;114868;-72
2023/04/10 04:20:39;;;;;;;;;;;9.70;63.30;;;9.94;45.57;99233.47;5029073;28;124111;-71
2023/04/10 04:23:10;;;;;;;;;;;9.70;63.40;;;9.92;45.72;99230.16;5014534;28;122993;-71
2023/04/10 04:25:38;;;;;;;;;;;9.70;63.50;;;9.89;45.73;99233.53;5028699;28;114668;-71
2023/04/10 04:28:05;;;;;;;;;;;9.70;63.70;;;9.82;45.96;99223.97;5032615;28;113707;-71
2023/04/10 04:30:31;;;;;;;;;;;9.60;63.50;;;9.77;46.00;99237.84;5028221;28;124294;-71
2023/04/10 04:32:57;;;;;;;;;;;9.60;63.70;;;9.71;45.96;99237.09;5039484;27;123343;-71
2023/04/10 04:35:30;;;;;;;;;;;9.50;63.70;;;9.70;46.04;99230.75;5014859;28;114067;-72
2023/04/10 04:37:56;;;;;;;;;;;9.50;63.80;;;9.68;46.13;99232.97;5030761;28;113579;-71
2023/04/10 04:40:26;;;;;;;;;;;9.50;63.80;;;9.69;46.33;99237.38;5027884;28;124063;-72
2023/04/10 04:42:52;;;;;;;;;;;9.50;64.00;;;9.68;46.29;99238.50;5028098;28;123989;-72
2023/04/10 04:45:20;;;;;;;;;;;9.50;64.10;;;9.69;46.12;99237.38;5031878;28;113478;-71
2023/04/10 04:47:52;;;;;;;;;;;9.50;64.50;;;9.65;46.17;99232.75;5030370;27;112975;-70
2023/04/10 04:50:26;;;;;;;;;;;9.40;64.30;;;9.61;46.47;99228.94;5029486;28;124550;-71
2023/04/10 04:52:52;;;;;;;;;;;9.40;64.50;;;9.59;46.33;99232.00;5060992;27;123638;-70
2023/04/10 04:55:18;;;;;;;;;;;9.40;64.80;;;9.59;46.40;99225.63;5028256;27;113453;-71
2023/04/10 04:57:45;;;;;;;;;;;9.40;64.80;;;9.58;46.72;99230.34;5026124;28;113678;-71
2023/04/10 05:00:14;;;;;;;;;;;9.30;65.00;;;9.59;46.88;99232.00;5030676;28;123467;-70
2023/04/10 05:02:43;;;;;;;;;;;9.30;65.00;;;9.56;46.77;99232.56;5029979;27;123894;-71
2023/04/10 05:05:11;;;;;;;;;;;9.30;65.30;;;9.58;47.31;99238.63;5032055;27;115078;-70
2023/04/10 05:07:41;;;;;;;;;;;9.30;65.90;;;9.59;46.92;99237.53;5019389;28;113822;-71
2023/04/10 05:10:08;;;;;;;;;;;9.30;65.70;;;9.61;47.02;99229.75;5020936;27;123913;-70
2023/04/10 05:12:36;;;;;;;;;;;9.30;65.80;;;9.65;47.30;99230.81;5026554;27;123800;-73
2023/04/10 05:15:09;;;;;;;;;;;9.40;66.00;;;9.68;47.40;99234.91;5029612;27;113585;-72
2023/04/10 05:17:35;;;;;;;;;;;9.40;66.50;;;9.60;47.87;99233.63;5032508;27;112417;-72
2023/04/10 05:20:01;;;;;;;;;;;9.30;66.80;;;9.56;47.64;99226.25;5034183;27;123648;-71
2023/04/10 05:22:34;;;;;;;;;;;9.30;66.60;;;9.57;47.68;99233.41;5027087;27;124124;-72
2023/04/10 05:25:00;;;;;;;;;;;9.30;66.70;;;9.56;47.53;99232.56;5015251;27;114277;-72
2023/04/10 05:27:33;;;;;;;;;;;9.30;66.80;;;9.58;47.71;99230.34;5022197;27;113737;-71
2023/04/10 05:30:02;;;;;;;;;;;9.30;66.90;;;9.59;47.61;99236.69;5021659;27;125175;-71
2023/04/10 05:32:30;;;;;;;;;;;9.30;66.90;;;9.63;47.49;99246.03;5032192;27;124147;-71
2023/04/10 05:34:56;;;;;;;;;;;9.40;67.00;;;9.61;47.76;99240.78;5028268;27;114784;-71
2023/04/10 05:37:23;;;;;;;;;;;9.40;67.20;;;9.61;47.78;99240.78;5028925;27;113689;-71
2023/04/10 05:39:56;;;;;;;;;;;9.40;67.20;;;9.65;47.83;99230.81;5029630;27;124007;-72
2023/04/10 05:42:22;;;;;;;;;;;9.40;67.20;;;9.71;47.65;99235.13;5028132;27;124063;-72
2023/04/10 05:44:56;;;;;;;;;;;9.40;67.30;;;9.79;47.48;99236.44;5024568;27;114635;-73
2023/04/10 05:47:22;;;;;;;;;;;9.50;67.50;;;9.83;47.47;99237.50;5024062;27;113742;-71
2023/04/10 05:49:48;;;;;;;;;;;9.50;67.60;;;9.89;47.14;99239.06;5010437;27;123300;-72
2023/04/10 05:52:15;;;;;;;;;;;9.50;67.50;;;9.92;47.30;99232.13;5020204;27;123883;-72
2023/04/10 05:54:42;;;;;;;;;;;9.60;67.60;;;9.95;47.11;99242.56;5022886;27;114911;-72
2023/04/10 05:57:11;;;;;;;;;;;9.60;67.60;;;9.96;47.44;99235.91;5025585;27;114607;-73
2023/04/10 05:59:37;;;;;;;;;;;9.60;67.70;;;9.94;47.45;99238.97;5011656;27;123375;-72
2023/04/10 06:02:07;;;;;;;;;;;9.60;67.60;;;9.96;47.61;99230.38;5026475;27;124037;-71
2023/04/10 06:04:33;;;;;;;;;;;9.70;67.60;;;9.98;47.44;99238.38;5005347;27;113423;-72
2023/04/10 06:07:00;;;;;;;;;;;9.70;67.50;;;9.98;47.18;99239.19;5056712;27;113773;-71
2023/04/10 06:09:26;;;;;;;;;;;9.70;67.60;;;10.01;47.22;99237.78;5027792;28;124260;-71
2023/04/10 06:11:55;;;;;;;;;;;9.70;67.60;;;10.07;47.06;99236.59;5009193;28;123776;-73
2023/04/10 06:14:22;;;;;;;;;;;9.70;67.60;;;10.12;47.14;99242.84;5020965;27;113768;-76
2023/04/10 06:16:50;;;;;;;;;;;9.80;67.80;;;10.15;47.19;99244.19;5012573;28;112971;-77
2023/04/10 06:19:19;;;;;;;;;;;9.80;67.70;;;10.18;47.25;99238.91;5021115;27;124105;-75
2023/04/10 06:21:45;;;;;;;;;;;9.80;67.70;;;10.20;47.01;99237.78;5022196;27;124462;-74
2023/04/10 06:24:13;;;;;;;;;;;9.80;67.60;;;10.18;46.87;99233.38;5009413;28;113404;-74
2023/04/10 06:26:39;;;;;;;;;;;9.90;67.70;;;10.18;47.04;99238.91;5023271;27;114250;-78
2023/04/10 06:29:08;;;;;;;;;;;9.90;67.60;;;10.24;47.24;99244.38;5032553;27;124326;-75
2023/04/10 06:31:34;;;;;;;;;;;9.90;67.60;;;10.28;46.78;99237.94;5029705;27;124534;-74
2023/04/10 06:34:03;;;;;;;;;;;10.00;66.70;;;10.33;46.68;99237.06;5029429;28;115079;-74
2023/04/10 06:36:32;;;;;;;;;;;10.00;66.50;;;10.38;46.64;99237.78;5040650;27;113742;-74
2023/04/10 06:39:01;;;;;;;;;;;10.00;66.50;;;10.42;46.85;99232.47;5030911;27;126808;-75
2023/04/10 06:41:31;;;;;;;;;;;10.10;66.70;;;10.48;46.49;99230.50;5028867;28;123547;-74
2023/04/10 06:43:57;;;;;;;;;;;10.10;66.60;;;10.49;46.72;99232.94;5029600;27;115185;-75
2023/04/10 06:46:23;;;;;;;;;;;10.10;66.60;;;10.54;46.26;99230.09;5025407;27;114098;-74
2023/04/10 06:48:55;;;;;;;;;;;10.20;66.70;;;10.61;46.37;99225.00;5032788;27;124043;-75
2023/04/10 06:51:24;;;;;;;;;;;10.20;66.70;;;10.67;46.32;99227.69;5023694;28;124116;-74
2023/04/10 06:53:53;;;;;;;;;;;10.20;66.60;;;10.76;46.00;99231.38;5041370;27;114880;-75
2023/04/10 06:56:19;;;;;;;;;;;10.30;66.50;;;10.80;45.82;99232.41;5012043;28;112699;-74
2023/04/10 06:58:46;;;;;;;;;;;10.40;66.40;;;10.87;45.65;99234.78;5024642;28;124350;-76
2023/04/10 07:01:12;;;;;;;;;;;10.40;66.90;;;10.93;46.03;99228.84;5026000;27;123915;-74
2023/04/10 07:03:41;;;;;;;;;;;10.50;66.20;;;11.04;45.86;99219.25;5029034;28;114341;-75
2023/04/10 07:06:09;;;;;;;;;;;10.60;66.20;;;11.19;45.51;99220.09;5030618;28;113889;-75
2023/04/10 07:08:35;;;;;;;;;;;10.70;66.20;;;11.29;45.46;99206.06;5011185;28;123547;-73
2023/04/10 07:11:07;;;;;;;;;;;10.70;66.00;;;11.42;45.20;99215.50;5021424;28;123848;-76
2023/04/10 07:13:37;;;;;;;;;;;10.80;66.00;;;11.56;44.80;99213.53;5030109;28;114550;-76
2023/04/10 07:16:08;;;;;;;;;;;10.90;65.90;;;11.69;44.48;99204.41;5030261;27;113362;-77
2023/04/10 07:18:37;;;;;;;;;;;11.00;65.80;;;11.84;44.44;99205.19;5019946;27;126403;-76
2023/04/10 07:21:11;;;;;;;;;;;11.20;65.80;;;11.97;43.93;99209.09;5021991;28;123351;-77
2023/04/10 07:23:43;;;;;;;;;;;11.30;65.50;;;12.07;43.72;99197.78;5060749;27;114469;-77
2023/04/10 07:26:12;;;;;;;;;;;11.40;64.80;;;12.17;43.29;99203.09;5039871;27;112925;-75
2023/04/10 07:28:46;;;;;;;;;;;11.50;64.60;;;12.28;42.76;99204.47;5030539;27;123957;-75
2023/04/10 07:31:13;;;;;;;;;;;11.70;64.20;;;12.40;42.50;99206.66;5030231;28;123901;-77
2023/04/10 07:33:42;;;;;;;9.23;6.53;;;11.80;63.90;;;12.51;42.49;99204.47;5017475;27;115407;-75
2023/04/10 07:36:08;;;;;;;12.30;7.20;;;11.90;63.40;;;12.60;42.29;99205.38;5003750;28;114931;-75
2023/04/10 07:38:35;;;;;;;11.10;6.80;;;11.90;63.20;;;12.68;41.92;99201.84;5001266;28;124122;-77
2023/04/10 07:41:01;;;;;;;8.87;6.57;;;12.20;63.70;;;12.79;41.32;99211.50;5032028;27;122817;-75
2023/04/10 07:43:31;;;;;;;9.90;7.03;;;12.10;62.10;;;12.87;41.18;99198.84;5003075;28;114293;-75
2023/04/10 07:45:57;;;;;;;8.33;6.53;;;12.20;61.90;;;12.98;41.11;99199.38;4995084;28;114028;-75
2023/04/10 07:48:24;;;;;;;8.30;5.87;;;12.30;61.80;;;13.09;40.83;99209.06;4995806;28;124248;-74
2023/04/10 07:50:53;;;;;;;9.43;6.63;;;12.40;61.50;;;13.16;40.03;99205.81;5029978;27;123601;-74
2023/04/10 07:53:19;;;;;;;9.00;6.20;;;12.50;60.50;;;13.21;40.18;99200.94;4998750;28;114270;-75
2023/04/10 07:55:49;;;;;;;8.13;5.63;;;12.50;60.50;;;13.30;39.76;99205.75;5024403;28;113610;-76
2023/04/10 07:58:21;;;;;;;8.80;6.40;;;12.60;60.40;;;13.40;39.72;99203.50;5000280;28;124133;-75
2023/04/10 08:00:55;;;;;;;7.47;5.50;;;12.70;60.00;;;13.48;39.84;99201.88;5007016;28;123017;-77
2023/04/10 08:03:22;;;;;;;10.70;6.47;;;12.80;60.00;;;13.55;39.36;99193.91;5025001;27;114797;-75
2023/04/10 08:05:54;;;;;;;8.67;5.73;;;12.80;59.90;;;13.59;39.80;99197.66;4999627;28;113574;-74
2023/04/10 08:08:21;;;;;;;6.90;5.80;;;12.90;60.10;;;13.68;39.66;99190.19;5021759;28;121977;-76
2023/04/10 08:10:48;;;;;;;7.80;5.77;;;13.10;59.90;;;13.77;39.23;99192.97;5006008;28;123871;-76
2023/04/10 08:13:22;;;;;;;6.97;5.07;;;13.10;59.20;;;13.87;38.56;99194.63;5004635;28;114390;-75
2023/04/10 08:15:52;;;;;;;5.93;4.67;;;13.20;58.90;;;13.95;37.95;99191.06;5006832;28;114699;-75
2023/04/10 08:18:19;;;;;;;5.03;4.23;;;13.30;57.80;;;13.97;36.78;99186.00;5021462;27;125299;-77
2023/04/10 08:20:45;;;;;;;5.30;3.80;;;13.30;55.90;;;14.02;36.98;99180.25;5025447;27;123928;-77
2023/04/10 08:23:19;;;;;;;5.23;4.57;;;13.50;56.30;;;14.08;35.89;99181.75;5006570;28;115247;-76
2023/04/10 08:25:45;;;;;;;5.10;4.10;;;13.50;54.60;;;14.13;36.14;99184.38;4993510;28;115068;-75
2023/04/10 08:28:12;;;;;;;5.90;4.20;;;13.50;55.00;;;14.18;35.84;99190.88;5008660;28;124398;-75
2023/04/10 08:30:43;;;;;;;6.93;5.27;;;13.50;54.50;;;14.25;35.11;99191.22;5007161;28;123755;-76
2023/04/10 08:33:12;;;;;;;5.20;4.20;;;13.60;53.60;;;14.26;35.30;99188.09;5010446;28;113394;-80
2023/04/10 08:35:47;;;;;;;6.07;3.90;;;13.60;53.60;;;14.28;35.31;99182.22;5002923;28;114252;-79
2023/04/10 08:38:20;;;;;;;5.33;4.00;;;13.90;53.60;;;14.29;35.34;99181.91;5013797;28;124043;-79
2023/04/10 08:40:46;;;;;;;5.13;3.87;;;13.70;53.40;;;14.34;35.45;99183.69;4998597;28;124234;-79
2023/04/10 08:43:19;;;;;;;4.47;3.80;;;13.90;53.70;;;14.44;35.43;99179.78;5001287;28;114438;-80
2023/04/10 08:45:46;;;;;;;4.13;3.20;;;13.90;53.60;;;14.49;34.49;99174.84;4996308;28;114477;-77
2023/04/10 08:48:45;;;;;;;4.90;3.83;;;14.00;52.40;;;14.49;34.45;99171.25;5007685;28;124109;-75
2023/04/10 08:51:20;;;;;;;4.53;3.50;;;13.90;51.90;;;14.51;34.04;99167.00;4996871;28;123714;-79
2023/04/10 08:53:57;;;;;;;5.87;4.40;;;14.00;51.60;;;14.54;34.22;99176.69;5004152;28;114878;-80
2023/04/10 08:56:32;;;;;;;4.60;3.73;;;14.00;51.60;;;14.57;34.13;99164.91;5006556;28;113883;-79
2023/04/10 08:59:09;;;;;;;4.90;3.67;;;14.10;51.30;;;14.63;34.44;99162.75;4987783;28;124024;-81
2023/04/10 09:01:36;;;;;;;4.50;3.67;;;14.10;51.80;;;14.68;34.22;99162.59;4999665;28;123223;-76
2023/04/10 09:04:16;;;;;;;4.83;3.70;;;14.20;51.30;;;14.75;33.90;99163.72;5008198;28;114369;-74
2023/04/10 09:06:43;;;;;;;5.07;3.63;;;14.20;50.90;;;14.80;33.86;99163.53;4998298;28;114223;-75
2023/04/10 09:09:09;;;;;;;4.37;3.40;;;14.30;50.80;;;14.85;34.02;99158.94;4997396;28;124049;-76
2023/04/10 09:11:59;;;;;;;4.37;2.70;;;14.30;50.90;;;14.89;33.89;99165.47;4992988;28;124079;-74
2023/04/10 09:14:32;;;;;;;4.73;3.67;;;14.40;50.80;;;14.94;33.01;99163.34;5009446;28;115294;-73
2023/04/10 09:17:22;;;;;;;4.90;3.60;;;14.50;50.00;;;14.92;32.65;99162.84;5004338;28;114428;-75
2023/04/10 09:19:53;;;;;;;3.90;3.10;;;14.40;49.00;;;14.95;32.83;99153.00;4989686;28;123345;-74
2023/04/10 09:22:36;;;;;;;4.37;3.27;;;14.40;49.40;;;15.02;32.65;99159.69;5007267;28;124417;-73
2023/04/10 09:25:04;;;;;;;5.37;3.80;;;14.50;48.80;;;15.08;32.27;99153.94;5022684;27;114206;-74
2023/04/10 09:27:42;;;;;;;3.67;2.93;;;14.50;48.50;;;15.15;32.61;99145.88;5001232;28;113766;-75
2023/04/10 09:30:54;;;;;;;3.90;3.33;;;14.60;49.20;;;15.22;32.50;99137.84;4998763;28;124555;-75
2023/04/10 09:33:26;;;;;;;4.93;3.17;;;14.70;48.80;;;15.29;32.48;99138.13;5003185;28;124334;-76
2023/04/10 09:35:56;;;;;;;4.03;2.83;;;14.80;49.20;;;15.38;32.78;99129.72;5013788;28;113269;-75
2023/04/10 09:38:31;;;;;;;4.47;3.17;;;14.80;49.30;;;15.45;32.01;99130.03;5009120;28;113500;-75
2023/04/10 09:41:08;;;;;;;4.50;3.43;;;14.90;48.70;;;15.53;31.98;99111.59;5005288;28;124064;-75
2023/04/10 09:43:37;;;;;;;3.60;2.87;;;15.00;48.20;;;15.59;31.67;99113.88;5022327;28;123830;-76
2023/04/10 09:46:04;;;;;;;4.20;3.47;;;15.10;48.10;;;15.65;31.33;99108.91;5009037;28;113949;-75
2023/04/10 09:48:31;;;;;;;4.50;3.37;;;15.10;47.20;;;15.68;31.17;99108.22;5009010;28;115431;-75
2023/04/10 09:51:04;;;;;;;3.93;3.17;;;15.20;47.30;;;15.74;31.13;99101.31;4990814;28;124382;-76
2023/04/10 09:53:49;;;;;;;3.63;3.10;;;15.20;47.00;;;15.78;31.39;99082.78;5006487;28;123387;-75
2023/04/10 09:56:16;;;;;;;3.00;2.70;;;15.30;47.50;;;15.86;31.29;99087.47;4986688;28;114155;-75
2023/04/10 09:58:43;;;;;;;3.70;2.43;;;15.30;47.20;;;15.92;30.69;99079.72;5008350;28;113088;-77
2023/04/10 10:01:15;;;;;;;4.10;3.10;;;15.40;46.60;;;15.96;30.88;99077.06;5026344;27;124098;-79
2023/04/10 10:03:45;;;;;;;3.23;2.93;;;15.50;46.40;;;16.00;30.84;99066.88;4990870;28;123841;-76
2023/04/10 10:06:14;;;;;;;5.60;3.30;;;15.50;46.50;;;16.05;30.51;99069.44;5005320;28;115230;-75
2023/04/10 10:08:41;;;;;;;3.40;3.10;;;15.50;46.00;;;16.07;30.74;99056.78;5030992;27;115275;-76
2023/04/10 10:11:10;;;;;;;4.10;3.20;;;15.60;46.20;;;16.13;30.26;99058.19;5005923;28;123957;-76
2023/04/10 10:13:56;;;;;;;2.33;2.10;;;15.60;45.80;;;16.19;30.56;99050.44;5023065;28;122909;-76
2023/04/10 10:16:38;;;;;;;;;;;15.70;46.30;;;16.27;30.73;99052.31;5022418;28;114710;-75
2023/04/10 10:19:22;;;;;;;;;;;15.80;46.40;;;16.36;30.27;99055.00;5010086;28;113754;-76
2023/04/10 10:21:53;;;;;;;;;;;15.80;45.70;;;16.45;29.85;99043.78;5027857;27;124775;-78
2023/04/10 10:24:30;;;;;;;;;;;15.90;45.40;;;16.52;29.68;99030.06;5039449;27;124022;-76
2023/04/10 10:26:57;;;;;;;;;;;15.90;45.00;;;16.61;30.06;99033.56;5032225;27;114335;-75
2023/04/10 10:29:30;;;;;;;;;;;16.00;45.40;;;16.72;29.27;99023.59;5009050;28;114210;-75
2023/04/10 10:32:02;;;;;;;;;;;16.10;44.20;;;16.82;29.12;99022.34;5020223;28;123388;-75
2023/04/10 10:34:29;;;;;;;;;;;16.20;44.10;;;16.92;29.38;99015.47;5015896;27;123990;-76
2023/04/10 10:36:57;;;;;;;;;;;16.30;44.40;;;17.05;28.93;99007.91;4993445;28;113892;-74
2023/04/10 10:39:29;;;;;;;;;;;16.40;44.10;;;17.14;28.69;99006.63;5002501;28;112416;-75
2023/04/10 10:42:19;;;;;;;;;;;16.50;43.70;;;17.23;28.15;99012.88;5000084;28;125241;-75
2023/04/10 10:45:02;;;;;;;;;;;16.70;42.90;;;17.31;26.39;98999.16;5001574;28;123696;-75
2023/04/10 10:47:32;;;;;;;;;;;16.70;40.20;;;17.37;26.23;98997.72;4992032;28;114446;-75
2023/04/10 10:50:04;;;;;;;;;;;16.80;39.70;;;17.43;25.73;99001.88;5003696;28;113475;-74
2023/04/10 10:52:56;;;;;;;;;;;16.90;39.00;;;17.49;25.13;98994.91;5004867;28;123876;-75
2023/04/10 10:55:30;;;;;;;;;;;17.00;37.30;;;17.55;24.79;98993.50;5019772;27;123957;-75
2023/04/10 10:57:59;;;;;;;;;;;17.00;37.10;;;17.59;24.63;98994.38;5000749;28;115469;-75
2023/04/10 11:00:49;;;;;;;;;;;17.10;36.70;;;17.58;24.27;98987.19;5001350;28;114360;-75
2023/04/10 11:03:15;;;;;;;;;;;17.10;35.60;;;17.60;24.46;98984.84;5010034;28;124089;-75
2023/04/10 11:05:53;;;;;;;;;;;17.10;36.30;;;17.65;23.85;98987.41;5036249;27;122748;-75
2023/04/10 11:08:31;;;;;;;;;;;17.20;35.50;;;17.69;23.92;98986.69;4995109;28;115082;-76
2023/04/10 11:11:04;;;;;;;;;;;17.20;35.40;;;17.72;24.20;98974.78;4986948;28;113823;-74